sensor_id;sensor_type;location;lat;lon;timestamp;temperature;humidity
12370;DHT22;6249;52.128;9.986;2023-01-20T00:00:23;-0.30;99.90
12370;DHT22;6249;52.128;9.986;2023-01-20T00:03:44;-0.20;99.90
12370;DHT22;6249;52.128;9.986;2023-01-20T00:07:05;-0.20;99.90
12370;DHT22;6249;52.128;9.986;2023-01-20T00:10:25;0.00;99.90
12370;DHT22;6249;52.128;9.986;2023-01-20T00:13:54;0.30;99.90
12370;DHT22;6249;52.128;9.986;2023-01-20T00:17:15;0.50;99.90
12370;DHT22;6249;52.128;9.986;2023-01-20T00:20:36;0.60;99.90
12370;DHT22;6249;52.128;9.986;2023-01-20T00:23:56;0.60;99.90
12370;DHT22;6249;52.128;9.986;2023-01-20T00:27:17;1.00;99.90
12370;DHT22;6249;52.128;9.986;2023-01-20T00:30:37;1.00;99.90
12370;DHT22;6249;52.128;9.986;2023-01-20T00:33:59;0.80;99.90
12370;DHT22;6249;52.128;9.986;2023-01-20T00:37:22;0.80;99.90
12370;DHT22;6249;52.128;9.986;2023-01-20T00:40:43;0.70;99.90
12370;DHT22;6249;52.128;9.986;2023-01-20T00:44:06;0.50;99.90
12370;DHT22;6249;52.128;9.986;2023-01-20T00:47:26;0.50;99.90
12370;DHT22;6249;52.128;9.986;2023-01-20T00:50:49;0.20;99.90
12370;DHT22;6249;52.128;9.986;2023-01-20T00:54:10;0.00;99.90
12370;DHT22;6249;52.128;9.986;2023-01-20T00:57:31;0.00;99.90
12370;DHT22;6249;52.128;9.986;2023-01-20T01:00:52;-0.20;99.90
12370;DHT22;6249;52.128;9.986;2023-01-20T01:04:14;-0.20;99.90
12370;DHT22;6249;52.128;9.986;2023-01-20T01:07:35;-0.20;99.90
12370;DHT22;6249;52.128;9.986;2023-01-20T01:10:57;-0.30;99.90
12370;DHT22;6249;52.128;9.986;2023-01-20T01:14:20;-0.30;99.90
12370;DHT22;6249;52.128;9.986;2023-01-20T01:17:41;-0.20;99.90
12370;DHT22;6249;52.128;9.986;2023-01-20T01:21:12;-0.20;99.90
12370;DHT22;6249;52.128;9.986;2023-01-20T01:24:33;-0.30;99.90
12370;DHT22;6249;52.128;9.986;2023-01-20T01:27:58;-0.20;99.90
12370;DHT22;6249;52.128;9.986;2023-01-20T01:31:19;-0.10;99.90
12370;DHT22;6249;52.128;9.986;2023-01-20T01:34:41;0.00;99.90
12370;DHT22;6249;52.128;9.986;2023-01-20T01:38:04;-0.10;99.90
12370;DHT22;6249;52.128;9.986;2023-01-20T01:41:24;0.00;99.90
12370;DHT22;6249;52.128;9.986;2023-01-20T01:52:04;-0.20;99.90
12370;DHT22;6249;52.128;9.986;2023-01-20T01:55:28;-0.20;99.90
12370;DHT22;6249;52.128;9.986;2023-01-20T01:58:53;-0.30;99.90
12370;DHT22;6249;52.128;9.986;2023-01-20T02:02:17;-0.40;99.90
12370;DHT22;6249;52.128;9.986;2023-01-20T02:05:39;-0.30;99.90
12370;DHT22;6249;52.128;9.986;2023-01-20T02:09:03;-0.30;99.90
12370;DHT22;6249;52.128;9.986;2023-01-20T02:12:24;-0.20;99.90
12370;DHT22;6249;52.128;9.986;2023-01-20T02:30:23;0.30;99.90
12370;DHT22;6249;52.128;9.986;2023-01-20T02:34:04;0.20;99.90
12370;DHT22;6249;52.128;9.986;2023-01-20T02:41:20;0.10;99.90
12370;DHT22;6249;52.128;9.986;2023-01-20T02:45:12;0.00;99.90
12370;DHT22;6249;52.128;9.986;2023-01-20T02:48:39;0.10;99.90
12370;DHT22;6249;52.128;9.986;2023-01-20T02:52:22;0.10;99.90
12370;DHT22;6249;52.128;9.986;2023-01-20T02:55:48;0.20;99.90
12370;DHT22;6249;52.128;9.986;2023-01-20T02:59:16;0.20;99.90
12370;DHT22;6249;52.128;9.986;2023-01-20T03:02:44;0.30;99.90
12370;DHT22;6249;52.128;9.986;2023-01-20T03:06:09;0.40;99.90
12370;DHT22;6249;52.128;9.986;2023-01-20T03:09:38;0.30;99.90
12370;DHT22;6249;52.128;9.986;2023-01-20T03:16:36;0.30;99.90
12370;DHT22;6249;52.128;9.986;2023-01-20T03:19:57;0.30;99.90
12370;DHT22;6249;52.128;9.986;2023-01-20T03:23:18;0.20;99.90
12370;DHT22;6249;52.128;9.986;2023-01-20T03:26:41;0.20;99.90
12370;DHT22;6249;52.128;9.986;2023-01-20T03:30:08;0.10;99.90
12370;DHT22;6249;52.128;9.986;2023-01-20T03:33:31;0.10;99.90
12370;DHT22;6249;52.128;9.986;2023-01-20T03:36:53;0.00;99.90
12370;DHT22;6249;52.128;9.986;2023-01-20T03:40:14;0.00;99.90
12370;DHT22;6249;52.128;9.986;2023-01-20T03:43:59;0.20;99.90
12370;DHT22;6249;52.128;9.986;2023-01-20T03:51:32;0.10;99.90
12370;DHT22;6249;52.128;9.986;2023-01-20T03:54:58;0.00;99.90
12370;DHT22;6249;52.128;9.986;2023-01-20T03:58:24;-0.10;99.90
12370;DHT22;6249;52.128;9.986;2023-01-20T04:01:47;-0.10;99.90
12370;DHT22;6249;52.128;9.986;2023-01-20T04:05:11;-0.20;99.90
12370;DHT22;6249;52.128;9.986;2023-01-20T04:08:38;-0.20;99.90
12370;DHT22;6249;52.128;9.986;2023-01-20T04:12:02;-0.10;99.90
12370;DHT22;6249;52.128;9.986;2023-01-20T04:15:24;-0.10;99.90
12370;DHT22;6249;52.128;9.986;2023-01-20T04:18:50;-0.20;99.90
12370;DHT22;6249;52.128;9.986;2023-01-20T04:25:36;-0.30;99.90
12370;DHT22;6249;52.128;9.986;2023-01-20T04:28:57;-0.30;99.90
12370;DHT22;6249;52.128;9.986;2023-01-20T04:32:17;-0.30;99.90
12370;DHT22;6249;52.128;9.986;2023-01-20T04:35:38;-0.30;99.90
12370;DHT22;6249;52.128;9.986;2023-01-20T04:39:01;-0.30;99.90
12370;DHT22;6249;52.128;9.986;2023-01-20T04:42:21;-0.30;99.90
12370;DHT22;6249;52.128;9.986;2023-01-20T04:45:42;-0.40;99.90
12370;DHT22;6249;52.128;9.986;2023-01-20T04:49:05;-0.40;99.90
12370;DHT22;6249;52.128;9.986;2023-01-20T04:52:26;-0.40;99.90
12370;DHT22;6249;52.128;9.986;2023-01-20T04:55:46;-0.40;99.90
12370;DHT22;6249;52.128;9.986;2023-01-20T04:59:09;-0.40;99.90
12370;DHT22;6249;52.128;9.986;2023-01-20T05:02:32;-0.40;99.90
12370;DHT22;6249;52.128;9.986;2023-01-20T05:05:53;-0.40;99.90
12370;DHT22;6249;52.128;9.986;2023-01-20T05:09:15;-0.40;99.90
12370;DHT22;6249;52.128;9.986;2023-01-20T05:12:36;-0.40;99.90
12370;DHT22;6249;52.128;9.986;2023-01-20T05:15:59;-0.50;99.90
12370;DHT22;6249;52.128;9.986;2023-01-20T05:19:22;-0.60;99.90
12370;DHT22;6249;52.128;9.986;2023-01-20T05:22:42;-0.60;99.90
12370;DHT22;6249;52.128;9.986;2023-01-20T05:26:03;-0.60;99.90
12370;DHT22;6249;52.128;9.986;2023-01-20T05:29:26;-0.70;99.90
12370;DHT22;6249;52.128;9.986;2023-01-20T05:32:49;-0.70;99.90
12370;DHT22;6249;52.128;9.986;2023-01-20T05:36:11;-0.90;99.90
12370;DHT22;6249;52.128;9.986;2023-01-20T05:39:31;-0.90;99.90
12370;DHT22;6249;52.128;9.986;2023-01-20T05:42:58;-0.80;99.90
12370;DHT22;6249;52.128;9.986;2023-01-20T05:46:19;-0.90;99.90
12370;DHT22;6249;52.128;9.986;2023-01-20T05:49:40;-0.90;99.90
12370;DHT22;6249;52.128;9.986;2023-01-20T05:53:02;-1.10;99.90
12370;DHT22;6249;52.128;9.986;2023-01-20T05:56:23;-1.20;99.90
12370;DHT22;6249;52.128;9.986;2023-01-20T05:59:46;-1.20;99.90
12370;DHT22;6249;52.128;9.986;2023-01-20T06:03:08;-1.30;99.90
12370;DHT22;6249;52.128;9.986;2023-01-20T06:06:29;-1.20;99.90
12370;DHT22;6249;52.128;9.986;2023-01-20T06:09:50;-1.20;99.90
12370;DHT22;6249;52.128;9.986;2023-01-20T06:13:10;-1.30;99.90
12370;DHT22;6249;52.128;9.986;2023-01-20T06:16:33;-1.30;99.90
12370;DHT22;6249;52.128;9.986;2023-01-20T06:19:54;-1.40;99.90
12370;DHT22;6249;52.128;9.986;2023-01-20T06:23:17;-1.40;99.90
12370;DHT22;6249;52.128;9.986;2023-01-20T06:26:38;-1.40;99.90
12370;DHT22;6249;52.128;9.986;2023-01-20T06:30:01;-1.50;99.90
12370;DHT22;6249;52.128;9.986;2023-01-20T06:33:21;-1.40;99.90
12370;DHT22;6249;52.128;9.986;2023-01-20T06:36:42;-1.30;99.90
12370;DHT22;6249;52.128;9.986;2023-01-20T06:40:08;-1.10;99.90
12370;DHT22;6249;52.128;9.986;2023-01-20T06:43:33;-0.80;99.90
12370;DHT22;6249;52.128;9.986;2023-01-20T06:46:53;-0.60;99.90
12370;DHT22;6249;52.128;9.986;2023-01-20T06:50:16;-0.50;99.90
12370;DHT22;6249;52.128;9.986;2023-01-20T06:53:40;-0.60;99.90
12370;DHT22;6249;52.128;9.986;2023-01-20T06:57:00;-0.60;99.90
12370;DHT22;6249;52.128;9.986;2023-01-20T07:00:25;-0.70;99.90
12370;DHT22;6249;52.128;9.986;2023-01-20T07:03:48;-0.70;99.90
12370;DHT22;6249;52.128;9.986;2023-01-20T07:07:11;-0.90;99.90
12370;DHT22;6249;52.128;9.986;2023-01-20T07:10:32;-0.80;99.90
12370;DHT22;6249;52.128;9.986;2023-01-20T07:13:55;-1.00;99.90
12370;DHT22;6249;52.128;9.986;2023-01-20T07:17:15;-1.10;99.90
12370;DHT22;6249;52.128;9.986;2023-01-20T07:20:38;-1.20;99.90
12370;DHT22;6249;52.128;9.986;2023-01-20T07:24:05;-1.30;99.90
12370;DHT22;6249;52.128;9.986;2023-01-20T07:27:25;-1.30;99.90
12370;DHT22;6249;52.128;9.986;2023-01-20T07:30:46;-1.30;99.90
12370;DHT22;6249;52.128;9.986;2023-01-20T07:34:06;-1.40;99.90
12370;DHT22;6249;52.128;9.986;2023-01-20T07:37:27;-1.50;99.90
12370;DHT22;6249;52.128;9.986;2023-01-20T07:40:50;-1.40;99.90
12370;DHT22;6249;52.128;9.986;2023-01-20T07:44:11;-1.30;99.90
12370;DHT22;6249;52.128;9.986;2023-01-20T07:47:31;-1.20;99.90
12370;DHT22;6249;52.128;9.986;2023-01-20T07:50:56;-1.20;99.90
12370;DHT22;6249;52.128;9.986;2023-01-20T07:54:22;-1.20;99.90
12370;DHT22;6249;52.128;9.986;2023-01-20T07:57:42;-1.00;99.90
12370;DHT22;6249;52.128;9.986;2023-01-20T08:01:06;-1.20;99.90
12370;DHT22;6249;52.128;9.986;2023-01-20T08:04:27;-1.30;99.90
12370;DHT22;6249;52.128;9.986;2023-01-20T08:07:56;-1.40;99.90
12370;DHT22;6249;52.128;9.986;2023-01-20T08:11:18;-1.30;99.90
12370;DHT22;6249;52.128;9.986;2023-01-20T08:14:39;-1.40;99.90
12370;DHT22;6249;52.128;9.986;2023-01-20T08:17:59;-1.40;99.90
12370;DHT22;6249;52.128;9.986;2023-01-20T08:21:25;-1.30;99.90
12370;DHT22;6249;52.128;9.986;2023-01-20T08:24:50;-1.30;99.90
12370;DHT22;6249;52.128;9.986;2023-01-20T08:28:16;-1.30;99.90
12370;DHT22;6249;52.128;9.986;2023-01-20T08:31:37;-1.10;99.90
12370;DHT22;6249;52.128;9.986;2023-01-20T08:34:57;-1.00;99.90
12370;DHT22;6249;52.128;9.986;2023-01-20T08:38:18;-0.90;99.90
12370;DHT22;6249;52.128;9.986;2023-01-20T08:41:41;-0.80;99.90
12370;DHT22;6249;52.128;9.986;2023-01-20T08:45:06;-0.70;99.90
12370;DHT22;6249;52.128;9.986;2023-01-20T08:48:28;-0.60;99.90
12370;DHT22;6249;52.128;9.986;2023-01-20T08:51:51;-0.60;99.90
12370;DHT22;6249;52.128;9.986;2023-01-20T08:55:13;-0.40;99.90
12370;DHT22;6249;52.128;9.986;2023-01-20T08:58:33;-0.20;99.90
12370;DHT22;6249;52.128;9.986;2023-01-20T09:01:56;0.80;99.90
12370;DHT22;6249;52.128;9.986;2023-01-20T09:05:22;0.20;99.90
12370;DHT22;6249;52.128;9.986;2023-01-20T09:08:43;0.40;99.90
12370;DHT22;6249;52.128;9.986;2023-01-20T09:12:06;0.70;99.90
12370;DHT22;6249;52.128;9.986;2023-01-20T09:15:27;0.80;99.90
12370;DHT22;6249;52.128;9.986;2023-01-20T09:18:49;1.40;99.90
12370;DHT22;6249;52.128;9.986;2023-01-20T09:22:10;1.60;99.90
12370;DHT22;6249;52.128;9.986;2023-01-20T09:25:31;1.50;99.90
12370;DHT22;6249;52.128;9.986;2023-01-20T09:28:51;2.00;99.90
12370;DHT22;6249;52.128;9.986;2023-01-20T09:32:15;2.30;99.90
12370;DHT22;6249;52.128;9.986;2023-01-20T09:35:38;2.20;99.90
12370;DHT22;6249;52.128;9.986;2023-01-20T09:39:01;2.20;99.90
12370;DHT22;6249;52.128;9.986;2023-01-20T09:47:24;2.30;99.90
12370;DHT22;6249;52.128;9.986;2023-01-20T09:50:52;2.50;99.90
12370;DHT22;6249;52.128;9.986;2023-01-20T09:54:41;3.00;99.90
12370;DHT22;6249;52.128;9.986;2023-01-20T10:01:54;3.50;99.90
12370;DHT22;6249;52.128;9.986;2023-01-20T10:05:19;3.80;99.90
12370;DHT22;6249;52.128;9.986;2023-01-20T10:08:50;4.00;99.90
12370;DHT22;6249;52.128;9.986;2023-01-20T10:15:47;4.30;99.90
12370;DHT22;6249;52.128;9.986;2023-01-20T10:19:34;4.00;99.90
12370;DHT22;6249;52.128;9.986;2023-01-20T10:23:09;4.00;99.90
12370;DHT22;6249;52.128;9.986;2023-01-20T10:26:35;3.90;99.90
12370;DHT22;6249;52.128;9.986;2023-01-20T10:30:08;3.90;99.90
12370;DHT22;6249;52.128;9.986;2023-01-20T10:33:42;4.60;99.90
12370;DHT22;6249;52.128;9.986;2023-01-20T10:37:09;5.10;99.90
12370;DHT22;6249;52.128;9.986;2023-01-20T10:40:39;5.80;99.90
12370;DHT22;6249;52.128;9.986;2023-01-20T10:44:08;6.40;99.90
12370;DHT22;6249;52.128;9.986;2023-01-20T10:47:52;7.10;99.90
12370;DHT22;6249;52.128;9.986;2023-01-20T10:51:44;7.70;99.90
12370;DHT22;6249;52.128;9.986;2023-01-20T10:58:41;8.60;99.90
12370;DHT22;6249;52.128;9.986;2023-01-20T11:02:24;8.80;99.90
12370;DHT22;6249;52.128;9.986;2023-01-20T11:05:47;9.30;99.90
12370;DHT22;6249;52.128;9.986;2023-01-20T11:12:56;9.10;99.60
12370;DHT22;6249;52.128;9.986;2023-01-20T11:16:27;9.20;98.10
12370;DHT22;6249;52.128;9.986;2023-01-20T11:19:55;9.00;98.80
12370;DHT22;6249;52.128;9.986;2023-01-20T11:23:52;9.00;98.30
12370;DHT22;6249;52.128;9.986;2023-01-20T11:27:21;9.20;99.20
12370;DHT22;6249;52.128;9.986;2023-01-20T11:30:41;9.50;98.30
12370;DHT22;6249;52.128;9.986;2023-01-20T11:34:23;9.30;97.50
12370;DHT22;6249;52.128;9.986;2023-01-20T11:37:44;9.90;96.40
12370;DHT22;6249;52.128;9.986;2023-01-20T11:41:20;10.20;95.60
12370;DHT22;6249;52.128;9.986;2023-01-20T11:51:32;10.60;93.40
12370;DHT22;6249;52.128;9.986;2023-01-20T11:58:50;11.00;95.70
12370;DHT22;6249;52.128;9.986;2023-01-20T12:02:21;10.50;93.70
12370;DHT22;6249;52.128;9.986;2023-01-20T12:05:49;10.70;94.20
12370;DHT22;6249;52.128;9.986;2023-01-20T12:09:19;11.30;94.70
12370;DHT22;6249;52.128;9.986;2023-01-20T12:12:48;11.60;92.70
12370;DHT22;6249;52.128;9.986;2023-01-20T12:16:10;12.10;90.70
12370;DHT22;6249;52.128;9.986;2023-01-20T12:26:58;12.30;90.40
12370;DHT22;6249;52.128;9.986;2023-01-20T12:30:58;12.70;87.70
12370;DHT22;6249;52.128;9.986;2023-01-20T12:34:33;12.30;90.30
12370;DHT22;6249;52.128;9.986;2023-01-20T12:37:58;11.60;90.80
12370;DHT22;6249;52.128;9.986;2023-01-20T13:07:45;10.70;93.20
12370;DHT22;6249;52.128;9.986;2023-01-20T13:11:37;11.60;91.40
12370;DHT22;6249;52.128;9.986;2023-01-20T13:22:22;11.10;90.20
12370;DHT22;6249;52.128;9.986;2023-01-20T13:25:44;10.50;92.50
12370;DHT22;6249;52.128;9.986;2023-01-20T13:29:38;9.80;94.50
12370;DHT22;6249;52.128;9.986;2023-01-20T13:33:33;9.30;95.10
12370;DHT22;6249;52.128;9.986;2023-01-20T13:40:50;8.60;96.40
12370;DHT22;6249;52.128;9.986;2023-01-20T13:44:37;8.10;97.70
12370;DHT22;6249;52.128;9.986;2023-01-20T13:48:21;7.60;98.90
12370;DHT22;6249;52.128;9.986;2023-01-20T13:51:43;7.10;99.90
12370;DHT22;6249;52.128;9.986;2023-01-20T13:59:00;6.90;99.90
12370;DHT22;6249;52.128;9.986;2023-01-20T14:02:23;6.60;99.90
12370;DHT22;6249;52.128;9.986;2023-01-20T14:09:22;6.40;99.90
12370;DHT22;6249;52.128;9.986;2023-01-20T14:12:45;6.50;99.90
12370;DHT22;6249;52.128;9.986;2023-01-20T14:16:15;6.50;99.90
12370;DHT22;6249;52.128;9.986;2023-01-20T14:19:37;7.20;99.90
12370;DHT22;6249;52.128;9.986;2023-01-20T14:23:24;6.40;99.90
12370;DHT22;6249;52.128;9.986;2023-01-20T14:26:47;6.40;99.90
12370;DHT22;6249;52.128;9.986;2023-01-20T14:30:17;6.30;99.90
12370;DHT22;6249;52.128;9.986;2023-01-20T14:33:46;6.30;99.90
12370;DHT22;6249;52.128;9.986;2023-01-20T14:40:50;6.10;99.90
12370;DHT22;6249;52.128;9.986;2023-01-20T14:44:25;6.00;99.90
12370;DHT22;6249;52.128;9.986;2023-01-20T14:47:46;5.80;99.90
12370;DHT22;6249;52.128;9.986;2023-01-20T14:51:09;5.80;99.90
12370;DHT22;6249;52.128;9.986;2023-01-20T14:54:42;6.90;99.90
12370;DHT22;6249;52.128;9.986;2023-01-20T14:58:12;5.90;99.90
12370;DHT22;6249;52.128;9.986;2023-01-20T15:01:34;5.70;99.90
12370;DHT22;6249;52.128;9.986;2023-01-20T15:04:55;5.70;99.90
12370;DHT22;6249;52.128;9.986;2023-01-20T15:16:26;5.50;99.90
12370;DHT22;6249;52.128;9.986;2023-01-20T15:19:45;5.50;99.90
12370;DHT22;6249;52.128;9.986;2023-01-20T15:26:35;5.50;99.90
12370;DHT22;6249;52.128;9.986;2023-01-20T15:30:19;5.50;99.90
12370;DHT22;6249;52.128;9.986;2023-01-20T15:33:42;5.40;99.90
12370;DHT22;6249;52.128;9.986;2023-01-20T15:37:13;5.40;99.90
12370;DHT22;6249;52.128;9.986;2023-01-20T15:40:36;5.30;99.90
12370;DHT22;6249;52.128;9.986;2023-01-20T15:44:01;5.40;99.90
12370;DHT22;6249;52.128;9.986;2023-01-20T15:47:25;5.40;99.90
12370;DHT22;6249;52.128;9.986;2023-01-20T15:50:50;5.40;99.90
12370;DHT22;6249;52.128;9.986;2023-01-20T15:54:12;5.30;99.90
12370;DHT22;6249;52.128;9.986;2023-01-20T15:57:35;5.30;99.90
12370;DHT22;6249;52.128;9.986;2023-01-20T16:00:57;5.20;99.90
12370;DHT22;6249;52.128;9.986;2023-01-20T16:04:20;5.10;99.90
12370;DHT22;6249;52.128;9.986;2023-01-20T16:07:41;5.00;99.90
12370;DHT22;6249;52.128;9.986;2023-01-20T16:11:03;4.80;99.90
12370;DHT22;6249;52.128;9.986;2023-01-20T16:14:24;4.80;99.90
12370;DHT22;6249;52.128;9.986;2023-01-20T16:17:45;5.50;99.90
12370;DHT22;6249;52.128;9.986;2023-01-20T16:21:15;4.80;99.90
12370;DHT22;6249;52.128;9.986;2023-01-20T16:24:36;4.80;99.90
12370;DHT22;6249;52.128;9.986;2023-01-20T16:27:57;4.70;99.90
12370;DHT22;6249;52.128;9.986;2023-01-20T16:31:21;4.60;99.90
12370;DHT22;6249;52.128;9.986;2023-01-20T16:34:42;4.60;99.90
12370;DHT22;6249;52.128;9.986;2023-01-20T16:38:03;4.60;99.90
12370;DHT22;6249;52.128;9.986;2023-01-20T16:41:28;4.50;99.90
12370;DHT22;6249;52.128;9.986;2023-01-20T16:44:52;4.50;99.90
12370;DHT22;6249;52.128;9.986;2023-01-20T16:48:12;4.50;99.90
12370;DHT22;6249;52.128;9.986;2023-01-20T16:51:35;4.50;99.90
12370;DHT22;6249;52.128;9.986;2023-01-20T16:54:56;4.50;99.90
12370;DHT22;6249;52.128;9.986;2023-01-20T16:58:17;4.50;99.90
12370;DHT22;6249;52.128;9.986;2023-01-20T17:01:37;4.50;99.90
12370;DHT22;6249;52.128;9.986;2023-01-20T17:05:00;4.50;99.90
12370;DHT22;6249;52.128;9.986;2023-01-20T17:08:21;4.50;99.90
12370;DHT22;6249;52.128;9.986;2023-01-20T17:11:42;4.40;99.90
12370;DHT22;6249;52.128;9.986;2023-01-20T17:15:02;4.50;99.90
12370;DHT22;6249;52.128;9.986;2023-01-20T17:18:23;4.30;99.90
12370;DHT22;6249;52.128;9.986;2023-01-20T17:21:46;4.30;99.90
12370;DHT22;6249;52.128;9.986;2023-01-20T17:25:10;4.30;99.90
12370;DHT22;6249;52.128;9.986;2023-01-20T17:28:31;4.20;99.90
12370;DHT22;6249;52.128;9.986;2023-01-20T17:31:52;4.10;99.90
12370;DHT22;6249;52.128;9.986;2023-01-20T17:35:14;4.10;99.90
12370;DHT22;6249;52.128;9.986;2023-01-20T17:38:34;4.10;99.90
12370;DHT22;6249;52.128;9.986;2023-01-20T17:41:55;4.00;99.90
12370;DHT22;6249;52.128;9.986;2023-01-20T17:45:16;4.00;99.90
12370;DHT22;6249;52.128;9.986;2023-01-20T17:48:38;4.00;99.90
12370;DHT22;6249;52.128;9.986;2023-01-20T17:52:02;4.40;99.90
12370;DHT22;6249;52.128;9.986;2023-01-20T17:55:22;3.80;99.90
12370;DHT22;6249;52.128;9.986;2023-01-20T17:58:44;4.00;99.90
12370;DHT22;6249;52.128;9.986;2023-01-20T18:02:05;3.70;99.90
12370;DHT22;6249;52.128;9.986;2023-01-20T18:05:28;3.70;99.90
12370;DHT22;6249;52.128;9.986;2023-01-20T18:08:56;3.70;99.90
12370;DHT22;6249;52.128;9.986;2023-01-20T18:12:18;3.70;99.90
12370;DHT22;6249;52.128;9.986;2023-01-20T18:15:40;3.70;99.90
12370;DHT22;6249;52.128;9.986;2023-01-20T18:19:01;3.60;99.90
12370;DHT22;6249;52.128;9.986;2023-01-20T18:22:22;3.60;99.90
12370;DHT22;6249;52.128;9.986;2023-01-20T18:25:45;3.50;99.90
12370;DHT22;6249;52.128;9.986;2023-01-20T18:29:15;3.50;99.90
12370;DHT22;6249;52.128;9.986;2023-01-20T18:32:39;3.50;99.90
12370;DHT22;6249;52.128;9.986;2023-01-20T18:36:01;3.50;99.90
12370;DHT22;6249;52.128;9.986;2023-01-20T18:39:23;3.40;99.90
12370;DHT22;6249;52.128;9.986;2023-01-20T18:42:44;3.40;99.90
12370;DHT22;6249;52.128;9.986;2023-01-20T18:46:06;3.30;99.90
12370;DHT22;6249;52.128;9.986;2023-01-20T18:49:26;3.30;99.90
12370;DHT22;6249;52.128;9.986;2023-01-20T18:52:49;3.30;99.90
12370;DHT22;6249;52.128;9.986;2023-01-20T18:56:14;3.30;99.90
12370;DHT22;6249;52.128;9.986;2023-01-20T18:59:35;3.20;99.90
12370;DHT22;6249;52.128;9.986;2023-01-20T19:02:57;3.10;99.90
12370;DHT22;6249;52.128;9.986;2023-01-20T19:06:22;3.20;99.90
12370;DHT22;6249;52.128;9.986;2023-01-20T19:09:42;3.10;99.90
12370;DHT22;6249;52.128;9.986;2023-01-20T19:13:03;3.10;99.90
12370;DHT22;6249;52.128;9.986;2023-01-20T19:16:26;3.10;99.90
12370;DHT22;6249;52.128;9.986;2023-01-20T19:19:46;3.10;99.90
12370;DHT22;6249;52.128;9.986;2023-01-20T19:23:09;3.10;99.90
12370;DHT22;6249;52.128;9.986;2023-01-20T19:26:30;3.00;99.90
12370;DHT22;6249;52.128;9.986;2023-01-20T19:29:55;3.00;99.90
12370;DHT22;6249;52.128;9.986;2023-01-20T19:33:18;2.90;99.90
12370;DHT22;6249;52.128;9.986;2023-01-20T19:36:38;2.70;99.90
12370;DHT22;6249;52.128;9.986;2023-01-20T19:39:59;3.90;99.90
12370;DHT22;6249;52.128;9.986;2023-01-20T19:43:20;2.40;99.90
12370;DHT22;6249;52.128;9.986;2023-01-20T19:46:40;2.30;99.90
12370;DHT22;6249;52.128;9.986;2023-01-20T19:50:06;2.10;99.90
12370;DHT22;6249;52.128;9.986;2023-01-20T19:53:27;2.00;99.90
12370;DHT22;6249;52.128;9.986;2023-01-20T19:56:48;1.90;99.90
12370;DHT22;6249;52.128;9.986;2023-01-20T20:00:09;1.80;99.90
12370;DHT22;6249;52.128;9.986;2023-01-20T20:03:30;1.80;99.90
12370;DHT22;6249;52.128;9.986;2023-01-20T20:06:50;1.70;99.90
12370;DHT22;6249;52.128;9.986;2023-01-20T20:10:11;1.60;99.90
12370;DHT22;6249;52.128;9.986;2023-01-20T20:13:31;1.40;99.90
12370;DHT22;6249;52.128;9.986;2023-01-20T20:16:52;1.30;99.90
12370;DHT22;6249;52.128;9.986;2023-01-20T20:20:17;1.20;99.90
12370;DHT22;6249;52.128;9.986;2023-01-20T20:23:38;1.10;99.90
12370;DHT22;6249;52.128;9.986;2023-01-20T20:26:58;0.90;99.90
12370;DHT22;6249;52.128;9.986;2023-01-20T20:30:19;0.90;99.90
12370;DHT22;6249;52.128;9.986;2023-01-20T20:33:40;0.80;99.90
12370;DHT22;6249;52.128;9.986;2023-01-20T20:37:01;0.70;99.90
12370;DHT22;6249;52.128;9.986;2023-01-20T20:40:22;0.60;99.90
12370;DHT22;6249;52.128;9.986;2023-01-20T20:43:46;0.70;99.90
12370;DHT22;6249;52.128;9.986;2023-01-20T20:47:08;0.50;99.90
12370;DHT22;6249;52.128;9.986;2023-01-20T20:50:31;0.40;99.90
12370;DHT22;6249;52.128;9.986;2023-01-20T20:53:55;0.40;99.90
12370;DHT22;6249;52.128;9.986;2023-01-20T20:57:15;0.30;99.90
12370;DHT22;6249;52.128;9.986;2023-01-20T21:00:38;0.40;99.90
12370;DHT22;6249;52.128;9.986;2023-01-20T21:04:02;0.30;99.90
12370;DHT22;6249;52.128;9.986;2023-01-20T21:07:25;0.20;99.90
12370;DHT22;6249;52.128;9.986;2023-01-20T21:10:53;0.10;99.90
12370;DHT22;6249;52.128;9.986;2023-01-20T21:14:13;0.10;99.90
12370;DHT22;6249;52.128;9.986;2023-01-20T21:17:38;0.10;99.90
12370;DHT22;6249;52.128;9.986;2023-01-20T21:21:03;0.00;99.90
12370;DHT22;6249;52.128;9.986;2023-01-20T21:24:27;-0.10;99.90
12370;DHT22;6249;52.128;9.986;2023-01-20T21:27:49;-0.20;99.90
12370;DHT22;6249;52.128;9.986;2023-01-20T21:31:12;-0.20;99.90
12370;DHT22;6249;52.128;9.986;2023-01-20T21:34:33;-0.30;99.90
12370;DHT22;6249;52.128;9.986;2023-01-20T21:37:54;-0.30;99.90
12370;DHT22;6249;52.128;9.986;2023-01-20T21:41:17;-0.40;99.90
12370;DHT22;6249;52.128;9.986;2023-01-20T21:44:40;-0.40;99.90
12370;DHT22;6249;52.128;9.986;2023-01-20T21:48:02;-0.50;99.90
12370;DHT22;6249;52.128;9.986;2023-01-20T21:51:43;-0.50;99.90
12370;DHT22;6249;52.128;9.986;2023-01-20T21:55:22;-0.60;99.90
12370;DHT22;6249;52.128;9.986;2023-01-20T21:58:47;0.10;99.90
12370;DHT22;6249;52.128;9.986;2023-01-20T22:02:10;-0.70;99.90
12370;DHT22;6249;52.128;9.986;2023-01-20T22:05:31;-0.80;99.90
12370;DHT22;6249;52.128;9.986;2023-01-20T22:08:52;-0.80;99.90
12370;DHT22;6249;52.128;9.986;2023-01-20T22:12:17;-0.80;99.90
12370;DHT22;6249;52.128;9.986;2023-01-20T22:15:38;-0.90;99.90
12370;DHT22;6249;52.128;9.986;2023-01-20T22:19:01;-0.90;99.90
12370;DHT22;6249;52.128;9.986;2023-01-20T22:22:21;-1.00;99.90
12370;DHT22;6249;52.128;9.986;2023-01-20T22:25:42;-1.10;99.90
12370;DHT22;6249;52.128;9.986;2023-01-20T22:29:03;-1.10;99.90
12370;DHT22;6249;52.128;9.986;2023-01-20T22:32:26;-1.10;99.90
12370;DHT22;6249;52.128;9.986;2023-01-20T22:35:52;-1.20;99.90
12370;DHT22;6249;52.128;9.986;2023-01-20T22:39:18;-1.20;99.90
12370;DHT22;6249;52.128;9.986;2023-01-20T22:42:40;-1.30;99.90
12370;DHT22;6249;52.128;9.986;2023-01-20T22:46:02;-1.30;99.90
12370;DHT22;6249;52.128;9.986;2023-01-20T22:49:23;-1.30;99.90
12370;DHT22;6249;52.128;9.986;2023-01-20T22:52:43;-1.30;99.90
12370;DHT22;6249;52.128;9.986;2023-01-20T22:56:13;-1.30;99.90
12370;DHT22;6249;52.128;9.986;2023-01-20T22:59:36;-1.30;99.90
12370;DHT22;6249;52.128;9.986;2023-01-20T23:02:57;-1.30;99.90
12370;DHT22;6249;52.128;9.986;2023-01-20T23:06:20;-1.40;99.90
12370;DHT22;6249;52.128;9.986;2023-01-20T23:09:41;-1.40;99.90
12370;DHT22;6249;52.128;9.986;2023-01-20T23:13:01;-1.30;99.90
12370;DHT22;6249;52.128;9.986;2023-01-20T23:16:22;-1.40;99.90
12370;DHT22;6249;52.128;9.986;2023-01-20T23:19:45;-1.50;99.90
12370;DHT22;6249;52.128;9.986;2023-01-20T23:23:06;-1.50;99.90
12370;DHT22;6249;52.128;9.986;2023-01-20T23:26:30;-1.60;99.90
12370;DHT22;6249;52.128;9.986;2023-01-20T23:29:50;-1.60;99.90
12370;DHT22;6249;52.128;9.986;2023-01-20T23:33:12;-1.70;99.90
12370;DHT22;6249;52.128;9.986;2023-01-20T23:36:32;-1.70;99.90
12370;DHT22;6249;52.128;9.986;2023-01-20T23:39:53;-1.70;99.90
12370;DHT22;6249;52.128;9.986;2023-01-20T23:43:14;-1.80;99.90
12370;DHT22;6249;52.128;9.986;2023-01-20T23:46:34;-1.90;99.90
12370;DHT22;6249;52.128;9.986;2023-01-20T23:49:57;-1.90;99.90
12370;DHT22;6249;52.128;9.986;2023-01-20T23:53:21;-1.90;99.90
12370;DHT22;6249;52.128;9.986;2023-01-20T23:56:45;-2.00;99.90
